Wetter Infos

Wetter-Informationen für den Flugplatz Hof

Die wichtigsten und aktuellen Wetterdaten für den Flugplatz Hof-Plauen sowie für die Umgebung haben wir hier zusammengestellt.

METARs

EDQM 010150Z AUTO 21007KT 9999 // NCD 06/05 Q1012

EDDN 010250Z AUTO 10009KT 6000 NSC 04/03 Q1013

EDDP 010250Z AUTO 16007KT CAVOK 08/05 Q1010 NOSIG

EDDC 010250Z AUTO 16005KT CAVOK 07/05 Q1011

Hof Wetter

DWD – Abruf von Luftsportberichten HIER


Aktuelles Niederschlagsradar

Quelle: © Deutscher Wetterdienst
Quelle: Deutscher Wetterdienst